createdAt,value
2023-01-29T00:02:58.493Z,42.78
2023-01-29T00:05:42.547Z,42.81
2023-01-29T00:08:37.613Z,42.94
2023-01-29T00:11:21.354Z,42.87
2023-01-29T00:14:15.310Z,42.80
2023-01-29T00:17:10.249Z,42.86
2023-01-29T00:20:04.111Z,42.80
2023-01-29T00:22:57.749Z,42.89
2023-01-29T00:25:51.724Z,42.87
2023-01-29T00:28:45.698Z,42.89
2023-01-29T00:31:39.717Z,42.99
2023-01-29T00:34:33.562Z,42.76
2023-01-29T00:37:27.491Z,42.84
2023-01-29T00:40:21.580Z,42.62
2023-01-29T00:43:32.914Z,42.76
2023-01-29T00:46:26.886Z,42.66
2023-01-29T00:49:20.541Z,42.75
2023-01-29T00:52:26.419Z,42.53
2023-01-29T00:55:20.424Z,42.74
2023-01-29T00:57:57.789Z,42.41
2023-01-29T01:00:52.006Z,42.65
2023-01-29T01:03:45.806Z,42.63
2023-01-29T01:06:43.017Z,42.64
2023-01-29T01:09:55.200Z,42.42
2023-01-29T01:12:49.114Z,42.56
2023-01-29T01:15:44.852Z,42.48
2023-01-29T01:18:39.113Z,42.69
2023-01-29T01:21:33.325Z,42.43
2023-01-29T01:24:30.178Z,42.57
2023-01-29T01:27:23.995Z,42.50
2023-01-29T01:30:19.424Z,42.49
2023-01-29T01:33:13.229Z,42.63
2023-01-29T01:36:09.832Z,42.45
2023-01-29T01:39:03.580Z,42.64
2023-01-29T01:41:57.734Z,42.62
2023-01-29T01:45:01.119Z,42.77
2023-01-29T01:48:01.369Z,42.52
2023-01-29T01:51:00.960Z,42.71
2023-01-29T01:54:02.726Z,42.48
2023-01-29T01:57:09.240Z,42.54
2023-01-29T02:00:11.549Z,42.62
2023-01-29T02:03:23.426Z,42.50
2023-01-29T02:06:34.747Z,42.33
2023-01-29T02:09:36.099Z,42.44
2023-01-29T02:12:31.546Z,42.69
2023-01-29T02:15:25.239Z,43.02
2023-01-29T02:18:21.983Z,42.48
2023-01-29T02:21:52.408Z,42.83
2023-01-29T02:25:09.739Z,42.42
2023-01-29T02:28:38.017Z,42.38
2023-01-29T02:31:42.558Z,42.74
2023-01-29T02:35:05.320Z,42.33
2023-01-29T02:38:10.754Z,42.15
2023-01-29T02:41:16.129Z,42.38
2023-01-29T02:44:17.874Z,42.16
2023-01-29T02:47:20.784Z,42.26
2023-01-29T02:50:22.340Z,42.54
2023-01-29T02:53:20.993Z,42.35
2023-01-29T02:56:29.756Z,42.46
2023-01-29T02:59:28.694Z,42.56
2023-01-29T03:02:36.912Z,42.23
2023-01-29T03:05:38.280Z,42.50
2023-01-29T03:08:43.283Z,42.43
2023-01-29T03:11:45.476Z,42.24
2023-01-29T03:14:55.759Z,42.48
2023-01-29T03:17:59.809Z,42.61
2023-01-29T03:20:58.467Z,42.49
2023-01-29T03:24:10.670Z,42.38
2023-01-29T03:27:28.760Z,42.51
2023-01-29T03:30:46.003Z,42.28
2023-01-29T03:33:48.305Z,42.47
2023-01-29T03:36:55.897Z,42.31
2023-01-29T03:39:49.817Z,42.63
2023-01-29T03:43:02.815Z,42.48
2023-01-29T03:46:07.095Z,42.35
2023-01-29T03:49:18.213Z,42.45
2023-01-29T03:52:23.022Z,42.57
2023-01-29T03:55:22.633Z,42.52
2023-01-29T03:58:26.804Z,42.35
2023-01-29T04:01:21.854Z,42.45
2023-01-29T04:04:20.347Z,42.61
2023-01-29T04:07:18.565Z,42.24
2023-01-29T04:10:18.399Z,42.42
2023-01-29T04:13:16.755Z,42.55
2023-01-29T04:16:16.756Z,42.54
2023-01-29T04:19:10.969Z,42.70
2023-01-29T04:22:08.809Z,42.61
2023-01-29T04:25:08.471Z,42.82
2023-01-29T04:28:17.840Z,42.88
2023-01-29T04:31:15.340Z,42.67
2023-01-29T04:34:22.518Z,42.64
2023-01-29T04:37:24.327Z,42.56
2023-01-29T04:40:27.798Z,42.87
2023-01-29T04:43:09.288Z,42.91
2023-01-29T04:46:15.583Z,42.64
2023-01-29T04:49:28.905Z,42.85
2023-01-29T04:52:33.462Z,42.69
2023-01-29T04:55:39.972Z,42.76
2023-01-29T04:58:39.121Z,42.81
2023-01-29T05:01:35.143Z,42.54
2023-01-29T05:04:26.004Z,42.46
2023-01-29T05:07:20.947Z,42.57
2023-01-29T05:10:20.439Z,42.58
2023-01-29T05:13:18.191Z,42.64
2023-01-29T05:16:23.952Z,42.56
2023-01-29T05:19:19.419Z,42.44
2023-01-29T05:22:16.462Z,42.44
2023-01-29T05:25:24.280Z,42.59
2023-01-29T05:28:17.972Z,42.75
2023-01-29T05:31:12.225Z,42.45
2023-01-29T05:34:05.979Z,42.69
2023-01-29T05:36:59.641Z,42.74
2023-01-29T05:39:38.476Z,42.78
2023-01-29T05:42:32.153Z,43.00
2023-01-29T05:45:26.200Z,43.72
2023-01-29T05:48:19.889Z,43.83
2023-01-29T05:51:13.602Z,43.85
2023-01-29T05:54:07.744Z,43.96
2023-01-29T05:57:01.466Z,44.56
2023-01-29T05:59:55.226Z,44.16
2023-01-29T06:02:49.047Z,43.68
2023-01-29T06:05:43.340Z,43.62
2023-01-29T06:08:37.248Z,43.45
2023-01-29T06:11:31.073Z,43.25
2023-01-29T06:14:24.735Z,43.38
2023-01-29T06:17:21.476Z,43.25
2023-01-29T06:19:57.877Z,43.09
2023-01-29T06:22:51.374Z,43.10
2023-01-29T06:25:45.095Z,43.33
2023-01-29T06:28:38.921Z,43.11
2023-01-29T06:31:38.690Z,42.99
2023-01-29T06:34:32.930Z,42.97
2023-01-29T06:37:26.783Z,42.90
2023-01-29T06:40:21.625Z,42.95
2023-01-29T06:43:15.502Z,42.86
2023-01-29T06:46:13.637Z,42.86
2023-01-29T06:49:07.326Z,43.02
2023-01-29T06:52:01.152Z,43.07
2023-01-29T06:54:54.828Z,43.07
2023-01-29T06:57:48.534Z,43.21
2023-01-29T07:00:42.691Z,43.04
2023-01-29T07:03:36.840Z,43.10
2023-01-29T07:06:33.690Z,43.41
2023-01-29T07:09:27.341Z,42.98
2023-01-29T07:12:21.052Z,43.42
2023-01-29T07:15:19.859Z,43.46
2023-01-29T07:18:13.846Z,43.59
2023-01-29T07:21:10.104Z,43.54
2023-01-29T07:24:03.836Z,43.58
2023-01-29T07:26:57.462Z,43.58
2023-01-29T07:29:51.202Z,43.71
2023-01-29T07:32:44.850Z,43.70
2023-01-29T07:35:41.739Z,43.61
2023-01-29T07:38:35.589Z,43.52
2023-01-29T07:41:29.263Z,43.82
2023-01-29T07:44:22.988Z,44.05
2023-01-29T07:47:07.443Z,44.08
2023-01-29T07:50:01.129Z,43.66
2023-01-29T07:52:56.631Z,44.05
2023-01-29T07:55:50.251Z,44.38
2023-01-29T07:58:43.998Z,44.17
2023-01-29T08:01:37.978Z,44.86
2023-01-29T08:04:31.687Z,45.05
2023-01-29T08:07:25.443Z,44.93
2023-01-29T08:10:19.754Z,44.71
2023-01-29T08:13:13.913Z,44.67
2023-01-29T08:16:09.354Z,44.46
2023-01-29T08:19:04.084Z,44.86
2023-01-29T08:21:57.803Z,44.94
2023-01-29T08:24:53.957Z,44.65
2023-01-29T08:27:53.704Z,44.76
2023-01-29T08:30:47.409Z,44.72
2023-01-29T08:33:41.130Z,44.72
2023-01-29T08:36:35.617Z,44.78
2023-01-29T08:39:29.580Z,44.19
2023-01-29T08:42:23.447Z,44.53
2023-01-29T08:45:18.096Z,44.37
2023-01-29T08:48:12.719Z,44.48
2023-01-29T08:51:07.209Z,44.23
2023-01-29T08:54:01.514Z,44.76
2023-01-29T08:56:55.272Z,44.71
2023-01-29T08:59:49.178Z,44.19
2023-01-29T09:02:43.898Z,43.98
2023-01-29T09:05:39.092Z,44.45
2023-01-29T09:08:32.778Z,45.17
2023-01-29T09:11:26.574Z,44.29
2023-01-29T09:14:20.633Z,44.64
2023-01-29T09:17:14.408Z,44.52
2023-01-29T09:20:10.661Z,41.13
2023-01-29T09:23:08.108Z,44.54
2023-01-29T09:26:02.170Z,41.78
2023-01-29T09:28:56.351Z,41.53
2023-01-29T09:31:50.257Z,41.44
2023-01-29T09:34:26.908Z,41.96
2023-01-29T09:37:23.454Z,44.52
2023-01-29T09:40:26.705Z,46.41
2023-01-29T09:43:25.507Z,47.39
2023-01-29T09:46:27.934Z,47.80
2023-01-29T09:49:31.573Z,47.74
2023-01-29T09:52:31.447Z,46.04
2023-01-29T09:55:32.518Z,46.52
2023-01-29T09:58:33.422Z,44.17
2023-01-29T10:01:34.320Z,43.45
2023-01-29T10:05:00.373Z,42.99
2023-01-29T10:08:20.683Z,42.78
2023-01-29T10:11:31.650Z,42.63
2023-01-29T10:14:37.881Z,42.34
2023-01-29T10:17:51.773Z,42.44
2023-01-29T10:21:13.557Z,41.98
2023-01-29T10:24:25.090Z,41.93
2023-01-29T10:27:22.772Z,41.61
2023-01-29T10:30:48.855Z,41.40
2023-01-29T10:34:01.535Z,41.21
2023-01-29T10:36:58.035Z,41.26
2023-01-29T10:39:51.916Z,41.55
2023-01-29T10:42:53.882Z,41.63
2023-01-29T10:45:54.979Z,41.48
2023-01-29T10:49:03.260Z,41.35
2023-01-29T10:52:12.342Z,41.37
2023-01-29T10:55:21.974Z,41.40
2023-01-29T10:58:30.958Z,41.40
2023-01-29T11:01:27.196Z,41.27
2023-01-29T11:04:21.206Z,41.21
2023-01-29T11:07:19.406Z,41.22
2023-01-29T11:10:19.744Z,41.08
2023-01-29T11:13:18.380Z,40.98
2023-01-29T11:16:13.254Z,40.62
2023-01-29T11:19:07.077Z,39.94
2023-01-29T11:22:04.298Z,40.16
2023-01-29T11:25:19.160Z,39.63
2023-01-29T11:27:58.504Z,39.58
2023-01-29T11:30:53.897Z,39.48
2023-01-29T11:33:48.179Z,39.57
2023-01-29T11:36:42.600Z,39.60
2023-01-29T11:39:56.506Z,39.10
2023-01-29T11:42:51.648Z,38.98
2023-01-29T11:45:49.048Z,37.99
2023-01-29T11:48:52.019Z,39.27
2023-01-29T11:52:05.693Z,38.63
2023-01-29T11:55:05.655Z,38.35
2023-01-29T11:58:08.021Z,38.26
2023-01-29T12:01:03.349Z,38.97
2023-01-29T12:03:57.322Z,39.62
2023-01-29T12:06:54.039Z,39.33
2023-01-29T12:09:55.731Z,39.20
2023-01-29T12:12:49.825Z,39.28
2023-01-29T12:15:44.718Z,38.83
2023-01-29T12:18:44.526Z,38.82
2023-01-29T12:21:46.135Z,38.82
2023-01-29T12:24:50.797Z,38.82
2023-01-29T12:27:55.009Z,38.41
2023-01-29T12:31:04.994Z,38.67
2023-01-29T12:34:11.693Z,38.44
2023-01-29T12:37:38.354Z,38.45
2023-01-29T12:40:39.439Z,38.18
2023-01-29T12:43:40.413Z,38.22
2023-01-29T12:46:40.397Z,38.24
2023-01-29T12:49:43.068Z,37.81
2023-01-29T12:52:46.090Z,37.14
2023-01-29T12:55:47.684Z,37.96
2023-01-29T12:58:46.735Z,37.90
2023-01-29T13:01:48.033Z,38.05
2023-01-29T13:04:41.834Z,39.94
2023-01-29T13:07:59.776Z,40.77
2023-01-29T13:10:56.083Z,41.02
2023-01-29T13:14:00.439Z,40.95
2023-01-29T13:16:56.709Z,41.11
2023-01-29T13:19:54.868Z,41.36
2023-01-29T13:22:50.104Z,41.35
2023-01-29T13:25:44.335Z,41.24
2023-01-29T13:28:39.317Z,40.96
2023-01-29T13:31:36.334Z,41.33
2023-01-29T13:34:36.027Z,41.45
2023-01-29T13:37:35.207Z,41.47
2023-01-29T13:40:34.744Z,41.27
2023-01-29T13:43:34.555Z,41.50
2023-01-29T13:46:29.878Z,41.52
2023-01-29T13:49:37.141Z,41.54
2023-01-29T13:52:43.163Z,41.54
2023-01-29T13:55:39.421Z,41.29
2023-01-29T13:59:01.759Z,41.43
2023-01-29T14:02:25.936Z,41.10
2023-01-29T14:06:01.976Z,41.17
2023-01-29T14:08:55.801Z,41.04
2023-01-29T14:11:53.626Z,40.97
2023-01-29T14:15:27.660Z,40.95
2023-01-29T14:18:27.095Z,40.61
2023-01-29T14:21:29.875Z,40.71
2023-01-29T14:24:29.832Z,40.64
2023-01-29T14:27:26.353Z,40.74
2023-01-29T14:30:23.914Z,40.74
2023-01-29T14:33:36.017Z,40.65
2023-01-29T14:36:30.404Z,40.65
2023-01-29T14:39:34.190Z,40.70
2023-01-29T14:42:30.901Z,40.69
2023-01-29T14:45:32.400Z,40.57
2023-01-29T14:48:47.463Z,40.79
2023-01-29T14:51:45.609Z,40.47
2023-01-29T14:54:41.800Z,40.59
2023-01-29T14:57:36.965Z,40.61
2023-01-29T15:00:35.682Z,40.67
2023-01-29T15:03:45.046Z,40.87
2023-01-29T15:06:45.824Z,40.65
2023-01-29T15:09:47.724Z,40.73
2023-01-29T15:12:50.269Z,40.58
2023-01-29T15:15:52.213Z,40.53
2023-01-29T15:18:46.855Z,40.51
2023-01-29T15:21:40.751Z,41.19
2023-01-29T15:24:35.018Z,40.10
2023-01-29T15:27:29.652Z,40.72
2023-01-29T15:30:33.618Z,40.59
2023-01-29T15:33:28.434Z,40.20
2023-01-29T15:36:25.502Z,41.65
2023-01-29T15:39:25.169Z,41.58
2023-01-29T15:42:23.673Z,41.20
2023-01-29T15:45:31.109Z,41.54
2023-01-29T15:48:32.925Z,41.26
2023-01-29T15:51:29.295Z,41.52
2023-01-29T15:54:23.055Z,42.98
2023-01-29T15:57:25.573Z,41.77
2023-01-29T16:00:29.724Z,41.75
2023-01-29T16:03:28.104Z,42.02
2023-01-29T16:06:22.718Z,41.98
2023-01-29T16:09:23.612Z,42.33
2023-01-29T16:12:17.808Z,42.24
2023-01-29T16:15:36.462Z,42.64
2023-01-29T16:18:36.521Z,42.55
2023-01-29T16:21:35.726Z,42.55
2023-01-29T16:24:31.329Z,42.41
2023-01-29T16:27:27.855Z,42.47
2023-01-29T16:30:10.618Z,42.51
2023-01-29T16:33:07.411Z,42.10
2023-01-29T16:36:01.237Z,42.32
2023-01-29T16:39:00.034Z,42.25
2023-01-29T16:42:30.258Z,42.22
2023-01-29T16:45:33.659Z,42.06
2023-01-29T16:48:34.618Z,42.21
2023-01-29T16:51:32.332Z,42.13
2023-01-29T16:54:18.380Z,42.06
2023-01-29T16:57:05.209Z,42.16
2023-01-29T17:00:02.530Z,42.02
2023-01-29T17:03:01.313Z,41.97
2023-01-29T17:05:55.534Z,41.79
2023-01-29T17:08:50.280Z,41.73
2023-01-29T17:11:44.802Z,41.83
2023-01-29T17:14:42.758Z,41.81
2023-01-29T17:17:37.705Z,41.73
2023-01-29T17:20:33.108Z,41.64
2023-01-29T17:23:27.030Z,41.49
2023-01-29T17:26:24.737Z,41.43
2023-01-29T17:29:20.059Z,41.40
2023-01-29T17:32:17.972Z,41.37
2023-01-29T17:35:15.478Z,41.54
2023-01-29T17:38:24.273Z,41.47
2023-01-29T17:41:25.811Z,41.27
2023-01-29T17:44:19.748Z,41.36
2023-01-29T17:47:16.722Z,41.33
2023-01-29T17:50:22.501Z,41.40
2023-01-29T17:53:17.060Z,41.65
2023-01-29T17:56:17.337Z,41.15
2023-01-29T17:59:18.540Z,41.24
2023-01-29T18:02:29.108Z,41.65
2023-01-29T18:05:24.096Z,41.54
2023-01-29T18:08:23.302Z,41.18
2023-01-29T18:11:17.288Z,40.65
2023-01-29T18:14:14.487Z,40.38
2023-01-29T18:17:08.472Z,40.48
2023-01-29T18:20:02.984Z,40.96
2023-01-29T18:23:04.530Z,40.86
2023-01-29T18:25:59.284Z,40.13
2023-01-29T18:28:54.009Z,39.96
2023-01-29T18:31:50.795Z,39.57
2023-01-29T18:34:45.232Z,41.33
2023-01-29T18:37:39.713Z,40.73
2023-01-29T18:40:34.654Z,40.55
2023-01-29T18:43:31.000Z,40.29
2023-01-29T18:46:25.167Z,40.73
2023-01-29T18:49:19.340Z,40.51
2023-01-29T18:52:13.192Z,40.36
2023-01-29T18:55:09.597Z,40.38
2023-01-29T18:58:26.701Z,40.48
2023-01-29T19:01:18.313Z,40.62
2023-01-29T19:04:12.319Z,40.52
2023-01-29T19:07:06.082Z,40.41
2023-01-29T19:10:00.003Z,40.54
2023-01-29T19:12:53.760Z,40.46
2023-01-29T19:15:49.060Z,40.42
2023-01-29T19:18:43.570Z,40.51
2023-01-29T19:21:37.418Z,40.74
2023-01-29T19:24:37.339Z,40.55
2023-01-29T19:27:31.644Z,40.57
2023-01-29T19:30:25.754Z,40.34
2023-01-29T19:33:23.175Z,40.40
2023-01-29T19:36:17.455Z,40.29
2023-01-29T19:39:11.529Z,40.29
2023-01-29T19:42:05.983Z,40.42
2023-01-29T19:44:59.748Z,40.55
2023-01-29T19:47:54.294Z,40.26
2023-01-29T19:50:55.947Z,40.14
2023-01-29T19:53:50.042Z,40.25
2023-01-29T19:56:43.935Z,40.14
2023-01-29T19:59:37.793Z,40.18
2023-01-29T20:02:32.552Z,40.32
2023-01-29T20:05:27.152Z,40.13
2023-01-29T20:08:22.267Z,40.41
2023-01-29T20:11:19.676Z,40.29
2023-01-29T20:14:13.720Z,40.28
2023-01-29T20:17:07.890Z,40.46
2023-01-29T20:20:02.562Z,40.51
2023-01-29T20:22:57.392Z,40.35
2023-01-29T20:25:52.212Z,40.38
2023-01-29T20:28:48.280Z,40.42
2023-01-29T20:31:42.395Z,40.40
2023-01-29T20:34:36.340Z,40.64
2023-01-29T20:37:30.015Z,40.29
2023-01-29T20:40:24.181Z,40.44
2023-01-29T20:43:18.368Z,40.37
2023-01-29T20:46:13.647Z,40.21
2023-01-29T20:49:08.182Z,40.37
2023-01-29T20:52:01.983Z,40.52
2023-01-29T20:54:55.818Z,40.30
2023-01-29T20:58:05.823Z,40.04
2023-01-29T21:01:00.628Z,40.11
2023-01-29T21:03:54.520Z,40.13
2023-01-29T21:06:48.234Z,40.01
2023-01-29T21:09:42.052Z,40.44
2023-01-29T21:12:36.015Z,40.21
2023-01-29T21:15:29.769Z,40.27
2023-01-29T21:18:25.738Z,41.03
2023-01-29T21:21:19.679Z,41.36
2023-01-29T21:24:15.282Z,41.24
2023-01-29T21:27:10.200Z,41.21
2023-01-29T21:30:04.499Z,41.17
2023-01-29T21:32:38.084Z,41.27
2023-01-29T21:35:32.154Z,41.21
2023-01-29T21:38:26.032Z,41.22
2023-01-29T21:41:39.949Z,41.37
2023-01-29T21:44:33.851Z,40.99
2023-01-29T21:47:27.932Z,41.34
2023-01-29T21:50:22.200Z,40.59
2023-01-29T21:53:15.990Z,41.44
2023-01-29T21:56:10.503Z,41.44
2023-01-29T21:59:04.372Z,41.83
2023-01-29T22:01:59.828Z,42.04
2023-01-29T22:05:08.809Z,41.89
2023-01-29T22:08:11.314Z,41.67
2023-01-29T22:11:10.697Z,41.80
2023-01-29T22:14:05.001Z,41.86
2023-01-29T22:16:59.036Z,41.77
2023-01-29T22:19:53.821Z,41.74
2023-01-29T22:22:48.549Z,41.92
2023-01-29T22:25:43.791Z,41.86
2023-01-29T22:28:37.755Z,41.66
2023-01-29T22:31:31.880Z,41.71
2023-01-29T22:34:26.075Z,41.50
2023-01-29T22:37:19.977Z,41.34
2023-01-29T22:40:16.572Z,41.46
2023-01-29T22:43:12.131Z,41.46
2023-01-29T22:46:09.767Z,41.58
2023-01-29T22:49:03.582Z,41.56
2023-01-29T22:52:10.916Z,41.55
2023-01-29T22:55:05.266Z,41.45
2023-01-29T22:57:59.439Z,41.36
2023-01-29T23:00:55.176Z,41.30
2023-01-29T23:03:49.087Z,41.36
2023-01-29T23:06:43.086Z,41.11
2023-01-29T23:09:37.033Z,41.03
2023-01-29T23:12:31.140Z,41.19
2023-01-29T23:15:24.849Z,41.11
2023-01-29T23:18:18.763Z,41.13
2023-01-29T23:21:13.562Z,40.93
2023-01-29T23:24:09.129Z,41.11
2023-01-29T23:27:18.286Z,41.22
2023-01-29T23:30:15.922Z,40.99
2023-01-29T23:33:12.132Z,40.83
2023-01-29T23:36:07.137Z,40.95
2023-01-29T23:39:00.894Z,41.27
2023-01-29T23:41:54.555Z,40.66
2023-01-29T23:44:48.368Z,40.83
2023-01-29T23:47:42.453Z,40.95
2023-01-29T23:50:36.351Z,40.92
2023-01-29T23:53:30.260Z,40.90
2023-01-29T23:56:24.511Z,40.95
2023-01-29T23:59:18.465Z,40.89
